Log Time Temp (C) Temp (F) Humidity Pressure DewPoint X Y Z Weather AQI
0 2020-08-07 00:00:06 35.0 95.0 39.4 1014.3 19.1 0.03 0.99 -0.07 [67.72, 'Possible Drizzle', 'No precipitation throughout the week.'] [20, 'Good']
1 2020-08-07 00:05:06 35.0 95.0 38.8 1014.4 18.9 0.03 0.99 -0.07 [67.54, 'Clear', 'No precipitation throughout the week.'] [20, 'Good']
2 2020-08-07 00:10:06 34.9 94.8 38.8 1014.4 18.8 0.03 0.99 -0.07 [67.37, 'Clear', 'No precipitation throughout the week.'] [20, 'Good']
3 2020-08-07 00:15:06 34.7 94.5 38.5 1014.5 18.5 0.03 0.99 -0.07 [67.2, 'Clear', 'No precipitation throughout the week.'] [20, 'Good']
4 2020-08-07 00:20:06 34.8 94.6 38.5 1014.5 18.6 0.03 0.99 -0.07 [67.04, 'Clear', 'No precipitation throughout the week.'] [20, 'Good']
5 2020-08-07 00:25:06 34.3 93.7 36.4 1014.6 17.3 0.03 0.99 -0.07 [66.88, 'Possible Drizzle', 'No precipitation throughout the week.'] [20, 'Good']
6 2020-08-07 00:30:06 34.2 93.6 37.8 1014.6 17.8 0.03 0.99 -0.07 [66.72, 'Possible Drizzle', 'No precipitation throughout the week.'] [20, 'Good']
7 2020-08-07 00:35:05 34.2 93.6 38.3 1014.6 18.0 0.03 0.99 -0.07 [66.51, 'Possible Drizzle', 'No precipitation throughout the week.'] [20, 'Good']
8 2020-08-07 00:40:06 34.0 93.2 38.4 1014.7 17.9 0.03 0.99 -0.07 [66.56, 'Possible Drizzle', 'No precipitation throughout the week.'] [20, 'Good']
9 2020-08-07 00:45:06 34.1 93.4 38.6 1014.7 18.0 0.03 0.99 -0.07 [66.4, 'Possible Drizzle', 'No precipitation throughout the week.'] [20, 'Good']
10 2020-08-07 00:50:06 33.8 92.8 37.4 1014.6 17.3 0.03 0.99 -0.07 [66.25, 'Possible Drizzle', 'No precipitation throughout the week.'] [20, 'Good']
11 2020-08-07 00:55:06 33.7 92.7 38.7 1014.5 17.7 0.03 0.99 -0.07 [66.09, 'Clear', 'No precipitation throughout the week.'] [20, 'Good']
12 2020-08-07 01:00:06 33.6 92.5 38.6 1014.5 17.6 0.03 0.99 -0.07 [65.94, 'Clear', 'No precipitation throughout the week.'] [20, 'Good']
13 2020-08-07 01:05:07 33.7 92.7 38.7 1014.5 17.7 0.02 0.99 -0.07 [65.8, 'Drizzle', 'No precipitation throughout the week.'] [20, 'Good']
14 2020-08-07 01:10:06 33.5 92.3 38.1 1014.5 17.3 0.02 0.99 -0.07 [65.65, 'Possible Drizzle', 'No precipitation throughout the week.'] [20, 'Good']
15 2020-08-07 01:15:06 33.5 92.3 38.9 1014.4 17.6 0.02 0.99 -0.07 [65.51, 'Possible Drizzle', 'No precipitation throughout the week.'] [20, 'Good']
16 2020-08-07 01:20:06 33.4 92.1 38.2 1014.4 17.2 0.03 0.99 -0.07 [65.37, 'Possible Drizzle', 'No precipitation throughout the week.'] [20, 'Good']
17 2020-08-07 02:00:06 33.0 91.4 39.2 1014.3 17.3 0.03 0.99 -0.07 [64.72, 'Clear', 'No precipitation throughout the week.'] [20, 'Good']
18 2020-08-07 03:20:06 32.2 90.0 40.4 1014.4 17.1 0.02 0.99 -0.07 [63.22, 'Clear', 'No precipitation throughout the week.'] [14, 'Good']
19 2020-08-07 03:25:06 32.2 90.0 42.0 1014.3 17.7 0.02 0.99 -0.07 [63.05, 'Clear', 'No precipitation throughout the week.'] [14, 'Good']
20 2020-08-07 03:30:06 32.2 90.0 42.5 1014.3 17.9 0.02 0.99 -0.07 [62.88, 'Clear', 'No precipitation throughout the week.'] [14, 'Good']
21 2020-08-07 03:35:06 32.0 89.6 42.0 1014.4 17.5 0.03 0.99 -0.07 [62.73, 'Clear', 'No precipitation throughout the week.'] [14, 'Good']
22 2020-08-07 03:40:06 31.9 89.4 42.2 1014.4 17.5 0.02 0.99 -0.07 [62.94, 'Clear', 'No precipitation throughout the week.'] [14, 'Good']
23 2020-08-07 03:45:06 32.0 89.6 42.7 1014.4 17.8 0.02 0.99 -0.07 [62.78, 'Clear', 'No precipitation throughout the week.'] [14, 'Good']
24 2020-08-07 03:50:06 31.8 89.2 44.5 1014.5 18.2 0.03 0.99 -0.07 [62.62, 'Clear', 'No precipitation throughout the week.'] [14, 'Good']
25 2020-08-07 03:55:06 31.6 88.9 42.2 1014.5 17.2 0.02 0.99 -0.07 [62.47, 'Clear', 'No precipitation throughout the week.'] [14, 'Good']
26 2020-08-07 04:00:06 31.7 89.1 42.7 1014.5 17.5 0.02 0.99 -0.07 [62.34, 'Clear', 'No precipitation throughout the week.'] [14, 'Good']
27 2020-08-07 04:05:06 31.6 88.9 43.2 1014.5 17.6 0.02 0.99 -0.07 [62.21, 'Clear', 'No precipitation throughout the week.'] [14, 'Good']
28 2020-08-07 04:10:06 31.4 88.5 43.0 1014.6 17.3 0.03 0.99 -0.07 [62.09, 'Clear', 'No precipitation throughout the week.'] [14, 'Good']
29 2020-08-07 04:15:06 31.4 88.5 43.2 1014.5 17.4 0.02 0.99 -0.07 [61.98, 'Clear', 'No precipitation throughout the week.'] [14, 'Good']
30 2020-08-07 04:20:06 31.7 89.1 43.4 1014.5 17.7 0.02 0.99 -0.07 [61.88, 'Clear', 'No precipitation throughout the week.'] [15, 'Good']
31 2020-08-07 04:25:06 31.5 88.7 42.4 1014.5 17.2 0.02 0.99 -0.07 [61.77, 'Clear', 'No precipitation throughout the week.'] [14, 'Good']
32 2020-08-07 04:30:06 31.4 88.5 43.8 1014.5 17.6 0.02 0.99 -0.07 [61.68, 'Clear', 'No precipitation throughout the week.'] [14, 'Good']
33 2020-08-07 04:35:05 31.4 88.5 43.7 1014.5 17.6 0.02 0.99 -0.07 [61.58, 'Clear', 'No precipitation throughout the week.'] [14, 'Good']
34 2020-08-07 04:40:06 31.4 88.5 44.4 1014.5 17.8 0.02 0.99 -0.07 [62.26, 'Possible Drizzle', 'No precipitation throughout the week.'] [14, 'Good']
35 2020-08-07 04:45:06 31.2 88.2 43.6 1014.6 17.4 0.02 0.99 -0.07 [62.17, 'Clear', 'No precipitation throughout the week.'] [14, 'Good']
36 2020-08-07 04:50:06 31.2 88.2 43.8 1014.7 17.4 0.02 0.99 -0.07 [62.08, 'Clear', 'No precipitation throughout the week.'] [14, 'Good']
37 2020-08-07 04:55:06 31.2 88.2 44.6 1014.7 17.7 0.02 0.99 -0.07 [62, 'Clear', 'No precipitation throughout the week.'] [14, 'Good']
38 2020-08-07 05:00:06 31.1 88.0 44.0 1014.7 17.4 0.02 0.99 -0.07 [61.86, 'Possible Drizzle', 'No precipitation throughout the week.'] [14, 'Good']
39 2020-08-07 05:05:06 31.0 87.8 44.3 1014.7 17.4 0.03 0.99 -0.07 [61.85, 'Possible Drizzle', 'No precipitation throughout the week.'] [14, 'Good']
40 2020-08-07 05:10:06 31.1 88.0 44.2 1014.7 17.5 0.02 0.99 -0.07 [61.7, 'Clear', 'No precipitation throughout the week.'] [14, 'Good']
41 2020-08-07 05:15:06 31.1 88.0 44.6 1014.8 17.6 0.02 0.99 -0.07 [61.64, 'Clear', 'No precipitation throughout the week.'] [14, 'Good']
42 2020-08-07 05:20:06 30.9 87.6 44.3 1014.8 17.3 0.02 0.99 -0.07 [61.58, 'Clear', 'No precipitation throughout the week.'] [15, 'Good']
43 2020-08-07 05:25:06 30.9 87.6 44.4 1014.9 17.4 0.02 0.99 -0.07 [61.53, 'Clear', 'No precipitation throughout the week.'] [14, 'Good']
44 2020-08-07 05:30:06 30.8 87.4 44.9 1014.9 17.5 0.02 0.99 -0.07 [61.49, 'Clear', 'No precipitation throughout the week.'] [14, 'Good']
45 2020-08-07 05:35:06 30.8 87.4 45.2 1014.9 17.6 0.02 0.99 -0.07 [61.41, 'Clear', 'No precipitation throughout the week.'] [14, 'Good']
46 2020-08-07 05:40:06 30.7 87.3 45.3 1015.0 17.5 0.02 0.99 -0.07 [61.3, 'Clear', 'No precipitation throughout the week.'] [14, 'Good']
47 2020-08-07 05:45:06 30.7 87.3 44.9 1015.0 17.4 0.02 0.99 -0.07 [61.27, 'Clear', 'No precipitation throughout the week.'] [14, 'Good']
48 2020-08-07 05:50:06 30.6 87.1 45.1 1015.0 17.4 0.02 1.00 -0.07 [61.27, 'Clear', 'No precipitation throughout the week.'] [14, 'Good']
49 2020-08-07 05:55:06 30.6 87.1 45.7 1015.0 17.6 0.02 0.99 -0.07 [61.26, 'Clear', 'No precipitation throughout the week.'] [14, 'Good']
50 2020-08-07 06:00:07 30.6 87.1 45.4 1015.0 17.5 0.02 0.99 -0.07 [61.27, 'Clear', 'No precipitation throughout the week.'] [14, 'Good']
51 2020-08-07 06:05:05 30.5 86.9 46.0 1015.1 17.6 0.02 0.99 -0.07 [61.29, 'Clear', 'No precipitation throughout the week.'] [14, 'Good']
52 2020-08-07 06:10:06 30.4 86.7 45.7 1015.2 17.4 0.02 0.99 -0.07 [61.32, 'Clear', 'No precipitation throughout the week.'] [14, 'Good']
53 2020-08-07 06:15:06 30.4 86.7 44.7 1015.2 17.0 0.02 0.99 -0.07 [61.35, 'Possible Drizzle', 'No precipitation throughout the week.'] [14, 'Good']
54 2020-08-07 06:20:06 30.4 86.7 45.3 1015.2 17.2 0.02 0.99 -0.07 [61.4, 'Possible Drizzle', 'No precipitation throughout the week.'] [14, 'Good']
55 2020-08-07 06:25:06 30.4 86.7 47.5 1015.3 18.0 0.02 0.99 -0.07 [61.46, 'Possible Drizzle', 'No precipitation throughout the week.'] [14, 'Good']
56 2020-08-07 06:30:06 30.4 86.7 45.5 1015.4 17.3 0.03 0.99 -0.07 [61.52, 'Possible Drizzle', 'No precipitation throughout the week.'] [14, 'Good']
57 2020-08-07 06:35:06 30.4 86.7 45.9 1015.4 17.5 0.02 0.99 -0.07 [61.5, 'Clear', 'No precipitation throughout the week.'] [14, 'Good']
58 2020-08-07 06:40:06 30.4 86.7 45.6 1015.4 17.3 0.02 0.99 -0.07 [61.03, 'Clear', 'No precipitation throughout the week.'] [14, 'Good']
59 2020-08-07 06:45:06 30.2 86.4 46.0 1015.5 17.3 0.02 0.99 -0.07 [61.14, 'Clear', 'No precipitation throughout the week.'] [14, 'Good']
60 2020-08-07 06:50:06 30.0 86.0 46.0 1015.5 17.1 0.02 0.99 -0.07 [61.26, 'Clear', 'No precipitation throughout the week.'] [14, 'Good']
61 2020-08-07 06:55:06 30.1 86.2 46.0 1015.5 17.2 0.02 0.99 -0.07 [61.4, 'Drizzle', 'No precipitation throughout the week.'] [14, 'Good']
62 2020-08-07 07:00:06 30.0 86.0 46.7 1015.5 17.4 0.02 0.99 -0.07 [61.54, 'Drizzle', 'No precipitation throughout the week.'] [14, 'Good']
63 2020-08-07 07:05:06 30.1 86.2 46.4 1015.5 17.4 0.02 0.99 -0.07 [61.71, 'Clear', 'No precipitation throughout the week.'] [14, 'Good']
64 2020-08-07 07:10:06 30.0 86.0 46.5 1015.6 17.3 0.02 0.99 -0.07 [61.89, 'Clear', 'No precipitation throughout the week.'] [14, 'Good']
65 2020-08-07 07:15:06 30.1 86.2 46.9 1015.7 17.5 0.02 0.99 -0.07 [62.09, 'Clear', 'No precipitation throughout the week.'] [14, 'Good']
66 2020-08-07 07:20:06 30.1 86.2 46.7 1015.7 17.5 0.02 0.99 -0.07 [62.31, 'Clear', 'No precipitation throughout the week.'] [14, 'Good']
67 2020-08-07 07:25:06 30.0 86.0 45.4 1015.8 16.9 0.02 0.99 -0.07 [62.53, 'Clear', 'No precipitation throughout the week.'] [12, 'Good']
68 2020-08-07 07:30:06 30.0 86.0 47.1 1015.9 17.5 0.02 0.99 -0.07 [62.77, 'Clear', 'No precipitation throughout the week.'] [12, 'Good']
69 2020-08-07 07:35:06 30.0 86.0 47.2 1016.0 17.5 0.02 0.99 -0.07 [62.68, 'Clear', 'No precipitation throughout the week.'] [12, 'Good']
70 2020-08-07 07:40:06 30.1 86.2 47.9 1016.0 17.9 0.02 0.99 -0.07 [62.71, 'Clear', 'No precipitation throughout the week.'] [12, 'Good']
71 2020-08-07 07:45:06 30.3 86.5 47.6 1016.1 17.9 0.02 0.99 -0.07 [62.96, 'Clear', 'No precipitation throughout the week.'] [12, 'Good']
72 2020-08-07 07:50:06 30.4 86.7 47.7 1016.2 18.1 0.02 0.99 -0.07 [63.22, 'Clear', 'No precipitation throughout the week.'] [12, 'Good']
73 2020-08-07 07:55:06 30.4 86.7 47.3 1016.2 17.9 0.03 0.99 -0.06 [63.49, 'Clear', 'No precipitation throughout the week.'] [12, 'Good']
74 2020-08-07 08:00:07 30.7 87.3 46.7 1016.3 18.0 0.02 0.99 -0.07 [63.77, 'Clear', 'No precipitation throughout the week.'] [12, 'Good']
75 2020-08-07 08:05:06 30.7 87.3 46.2 1016.3 17.8 0.02 0.99 -0.07 [64.07, 'Clear', 'No precipitation throughout the week.'] [12, 'Good']
76 2020-08-07 08:10:06 30.8 87.4 46.1 1016.3 17.9 0.02 0.99 -0.07 [64.39, 'Clear', 'No precipitation throughout the week.'] [12, 'Good']
77 2020-08-07 08:15:06 30.9 87.6 46.2 1016.2 18.0 0.02 0.99 -0.07 [65.28, 'Clear', 'No precipitation throughout the week.'] [12, 'Good']
78 2020-08-07 08:20:06 31.0 87.8 46.8 1016.2 18.3 0.02 0.99 -0.07 [65.49, 'Clear', 'No precipitation throughout the week.'] [12, 'Good']
79 2020-08-07 08:25:06 31.0 87.8 46.0 1016.3 18.0 0.02 0.99 -0.07 [65.89, 'Clear', 'No precipitation throughout the week.'] [14, 'Good']
80 2020-08-07 08:30:06 31.1 88.0 45.1 1016.3 17.8 0.02 0.99 -0.07 [66.3, 'Clear', 'No precipitation throughout the week.'] [14, 'Good']
81 2020-08-07 08:35:06 31.2 88.2 45.9 1016.4 18.2 0.02 0.99 -0.07 [66.42, 'Clear', 'No precipitation throughout the week.'] [14, 'Good']
82 2020-08-07 08:40:06 31.3 88.3 45.7 1016.5 18.2 0.02 0.99 -0.07 [66.8, 'Clear', 'No precipitation throughout the week.'] [14, 'Good']
83 2020-08-07 08:45:06 31.4 88.5 45.5 1016.5 18.2 0.02 0.99 -0.07 [67.2, 'Clear', 'No precipitation throughout the week.'] [14, 'Good']
84 2020-08-07 08:50:06 31.4 88.5 45.5 1016.5 18.2 0.02 0.99 -0.07 [67.6, 'Clear', 'No precipitation throughout the week.'] [14, 'Good']
85 2020-08-07 08:55:06 31.6 88.9 45.3 1016.5 18.3 0.02 0.99 -0.07 [68.01, 'Clear', 'No precipitation throughout the week.'] [14, 'Good']
86 2020-08-07 09:00:06 31.7 89.1 45.5 1016.5 18.5 0.02 0.99 -0.07 [68.42, 'Possible Drizzle', 'No precipitation throughout the week.'] [14, 'Good']
87 2020-08-07 09:05:06 31.4 88.5 45.2 1016.6 18.1 0.02 0.99 -0.07 [68.83, 'Possible Drizzle', 'No precipitation throughout the week.'] [14, 'Good']